createdAt,value
2017-06-17T00:01:34.806Z,2.95
2017-06-17T00:04:05.356Z,3.25
2017-06-17T00:06:35.986Z,2.85
2017-06-17T00:09:06.452Z,3.30
2017-06-17T00:11:37.729Z,3.60
2017-06-17T00:14:08.432Z,3.03
2017-06-17T00:16:38.953Z,3.10
2017-06-17T00:19:09.380Z,2.90
2017-06-17T00:21:39.889Z,3.10
2017-06-17T00:24:11.037Z,3.92
2017-06-17T00:26:41.337Z,3.50
2017-06-17T00:29:12.046Z,3.53
2017-06-17T00:31:42.598Z,3.35
2017-06-17T00:34:13.149Z,2.92
2017-06-17T00:36:44.280Z,3.80
2017-06-17T00:39:14.852Z,3.15
2017-06-17T00:41:45.176Z,3.50
2017-06-17T00:44:16.483Z,3.47
2017-06-17T00:46:47.005Z,3.30
2017-06-17T00:49:17.440Z,3.50
2017-06-17T00:51:47.980Z,3.53
2017-06-17T00:54:19.015Z,3.90
2017-06-17T00:56:49.668Z,3.92
2017-06-17T00:59:20.304Z,3.47
2017-06-17T01:01:50.713Z,4.53
2017-06-17T01:04:21.259Z,4.20
2017-06-17T01:06:51.963Z,4.47
2017-06-17T01:09:22.359Z,4.10
2017-06-17T01:11:53.041Z,4.00
2017-06-17T01:14:23.832Z,3.83
2017-06-17T01:16:54.159Z,3.67
2017-06-17T01:19:24.499Z,4.07
2017-06-17T01:21:54.939Z,4.75
2017-06-17T01:24:25.057Z,3.97
2017-06-17T01:26:55.495Z,4.50
2017-06-17T01:29:26.597Z,4.22
2017-06-17T01:31:57.060Z,3.83
2017-06-17T01:34:27.590Z,3.92
2017-06-17T01:36:57.828Z,4.07
2017-06-17T01:39:28.208Z,4.10
2017-06-17T01:41:58.544Z,4.40
2017-06-17T01:44:28.774Z,3.97
2017-06-17T01:47:00.065Z,4.82
2017-06-17T01:49:30.672Z,4.05
2017-06-17T01:52:01.709Z,4.70
2017-06-17T01:54:32.340Z,3.90
2017-06-17T01:57:02.761Z,3.53
2017-06-17T01:59:33.391Z,3.90
2017-06-17T02:02:03.980Z,4.00
2017-06-17T02:04:34.535Z,3.90
2017-06-17T02:07:05.231Z,4.20
2017-06-17T02:09:36.505Z,4.00
2017-06-17T02:12:07.067Z,4.50
2017-06-17T02:14:37.760Z,4.50
2017-06-17T02:17:08.276Z,4.40
2017-06-17T02:19:38.676Z,4.30
2017-06-17T02:22:09.795Z,4.20
2017-06-17T02:24:40.214Z,4.43
2017-06-17T02:27:10.532Z,4.03
2017-06-17T02:29:41.096Z,4.50
2017-06-17T02:32:11.714Z,4.50
2017-06-17T02:34:42.713Z,4.60
2017-06-17T02:37:13.181Z,4.80
2017-06-17T02:39:43.541Z,4.32
2017-06-17T02:42:15.035Z,4.57
2017-06-17T02:44:45.467Z,4.80
2017-06-17T02:47:15.802Z,4.18
2017-06-17T02:49:46.304Z,4.90
2017-06-17T02:52:18.016Z,4.90
2017-06-17T02:54:48.485Z,4.78
2017-06-17T02:57:19.068Z,5.47
2017-06-17T02:59:49.232Z,5.10
2017-06-17T03:02:19.370Z,5.62
2017-06-17T03:04:49.497Z,4.90
2017-06-17T03:07:19.598Z,5.50
2017-06-17T03:09:50.328Z,5.18
2017-06-17T03:12:20.860Z,5.25
2017-06-17T03:14:51.012Z,5.90
2017-06-17T03:17:21.185Z,5.30
2017-06-17T03:19:51.304Z,5.87
2017-06-17T03:22:21.465Z,5.70
2017-06-17T03:24:51.620Z,5.85
2017-06-17T03:27:21.804Z,5.55
2017-06-17T03:29:52.911Z,6.10
2017-06-17T03:32:23.519Z,6.00
2017-06-17T03:34:53.964Z,6.00
2017-06-17T03:37:25.192Z,5.70
2017-06-17T03:39:55.651Z,5.30
2017-06-17T03:42:26.028Z,5.95
2017-06-17T03:44:56.649Z,5.70
2017-06-17T03:47:27.483Z,5.47
2017-06-17T03:49:57.758Z,5.43
2017-06-17T03:52:28.791Z,5.70
2017-06-17T03:54:59.360Z,5.63
2017-06-17T03:57:29.891Z,6.10
2017-06-17T04:00:00.372Z,6.22
2017-06-17T04:02:30.928Z,5.60
2017-06-17T04:05:01.747Z,6.40
2017-06-17T04:07:32.142Z,5.75
2017-06-17T04:10:02.541Z,6.50
2017-06-17T04:12:33.467Z,5.90
2017-06-17T04:15:04.141Z,5.87
2017-06-17T04:17:34.335Z,5.60
2017-06-17T04:20:04.449Z,5.80
2017-06-17T04:22:34.665Z,5.47
2017-06-17T04:25:04.770Z,5.40
2017-06-17T04:27:35.101Z,5.50
2017-06-17T04:30:05.342Z,6.03
2017-06-17T04:32:35.740Z,5.50
2017-06-17T04:35:06.100Z,5.40
2017-06-17T04:37:36.337Z,5.30
2017-06-17T04:40:06.502Z,5.30
2017-06-17T04:42:36.669Z,5.60
2017-06-17T04:45:06.797Z,6.22
2017-06-17T04:47:37.204Z,5.77
2017-06-17T04:50:07.636Z,5.10
2017-06-17T04:52:37.891Z,5.10
2017-06-17T04:55:08.278Z,5.20
2017-06-17T04:57:38.931Z,5.28
2017-06-17T05:00:09.892Z,5.65
2017-06-17T05:02:40.525Z,4.80
2017-06-17T05:05:11.028Z,4.72
2017-06-17T05:07:41.369Z,4.90
2017-06-17T05:10:11.893Z,4.80
2017-06-17T05:12:42.676Z,4.33
2017-06-17T05:15:13.233Z,3.90
2017-06-17T05:17:43.884Z,4.05
2017-06-17T05:20:14.333Z,4.35
2017-06-17T05:22:45.147Z,4.03
2017-06-17T05:25:15.559Z,3.90
2017-06-17T05:27:45.911Z,4.03
2017-06-17T05:30:16.311Z,3.50
2017-06-17T05:32:46.789Z,3.90
2017-06-17T05:35:17.991Z,3.50
2017-06-17T05:37:48.143Z,3.50
2017-06-17T05:40:18.516Z,3.60
2017-06-17T05:42:48.888Z,3.40
2017-06-17T05:45:19.349Z,4.00
2017-06-17T05:47:50.112Z,3.60
2017-06-17T05:50:35.206Z,3.72
2017-06-17T05:53:13.276Z,3.60
2017-06-17T05:55:47.262Z,3.80
2017-06-17T05:58:18.638Z,3.60
2017-06-17T06:00:58.921Z,3.40
2017-06-17T06:03:29.624Z,3.70
2017-06-17T06:06:24.585Z,4.07
2017-06-17T06:09:02.488Z,3.45
2017-06-17T06:11:38.934Z,4.50
2017-06-17T06:14:18.838Z,3.95
2017-06-17T06:16:49.197Z,4.50
2017-06-17T06:19:23.439Z,3.85
2017-06-17T06:21:55.748Z,3.70
2017-06-17T06:24:26.783Z,4.47
2017-06-17T06:26:57.293Z,3.80
2017-06-17T06:29:27.420Z,4.40
2017-06-17T06:31:57.560Z,3.92
2017-06-17T06:34:27.729Z,4.05
2017-06-17T06:36:58.697Z,4.32
2017-06-17T06:39:28.848Z,3.70
2017-06-17T06:41:59.100Z,3.92
2017-06-17T06:44:29.456Z,4.05
2017-06-17T06:49:40.323Z,4.10
2017-06-17T06:52:10.855Z,3.50
2017-06-17T06:57:22.184Z,4.17
2017-06-17T06:59:53.953Z,4.32
2017-06-17T07:02:50.649Z,3.97
2017-06-17T07:05:37.425Z,4.07
2017-06-17T07:08:18.946Z,3.85
2017-06-17T07:13:38.320Z,4.82
2017-06-17T07:16:12.250Z,4.30
2017-06-17T07:18:43.472Z,4.30
2017-06-17T07:21:39.754Z,3.92
2017-06-17T07:24:10.508Z,4.80
2017-06-17T07:26:40.697Z,4.50
2017-06-17T07:29:11.111Z,4.10
2017-06-17T07:31:41.213Z,4.10
2017-06-17T07:34:11.431Z,4.00
2017-06-17T07:36:41.984Z,4.45
2017-06-17T07:39:12.288Z,4.20
2017-06-17T07:41:42.531Z,4.60
2017-06-17T07:44:12.715Z,4.12
2017-06-17T07:46:43.024Z,4.37
2017-06-17T07:49:13.484Z,4.60
2017-06-17T07:51:44.197Z,4.60
2017-06-17T07:54:14.940Z,4.63
2017-06-17T07:56:45.539Z,4.10
2017-06-17T07:59:17.399Z,4.00
2017-06-17T08:01:48.139Z,4.32
2017-06-17T08:04:18.742Z,4.20
2017-06-17T08:06:49.640Z,4.50
2017-06-17T08:09:19.838Z,4.72
2017-06-17T08:11:50.056Z,4.00
2017-06-17T08:14:21.500Z,4.43
2017-06-17T08:16:52.463Z,4.50
2017-06-17T08:19:23.564Z,4.55
2017-06-17T08:21:53.934Z,4.43
2017-06-17T08:24:24.117Z,4.30
2017-06-17T08:26:54.317Z,4.37
2017-06-17T08:29:24.974Z,4.10
2017-06-17T08:31:55.308Z,3.95
2017-06-17T08:34:25.499Z,4.90
2017-06-17T08:36:55.910Z,4.15
2017-06-17T08:39:26.047Z,4.10
2017-06-17T08:41:56.207Z,4.20
2017-06-17T08:44:26.664Z,4.28
2017-06-17T08:46:56.808Z,4.10
2017-06-17T08:49:27.236Z,3.90
2017-06-17T08:51:57.403Z,4.27
2017-06-17T08:54:27.897Z,3.95
2017-06-17T08:56:58.281Z,3.65
2017-06-17T08:59:28.417Z,3.90
2017-06-17T09:01:59.032Z,4.07
2017-06-17T09:04:29.185Z,3.45
2017-06-17T09:06:59.412Z,3.70
2017-06-17T09:09:29.797Z,3.20
2017-06-17T09:11:59.905Z,3.50
2017-06-17T09:14:30.140Z,3.10
2017-06-17T09:17:01.105Z,3.70
2017-06-17T09:19:31.868Z,3.67
2017-06-17T09:22:02.069Z,3.63
2017-06-17T09:24:32.260Z,3.78
2017-06-17T09:27:02.616Z,3.78
2017-06-17T09:29:32.812Z,3.60
2017-06-17T09:32:03.724Z,3.70
2017-06-17T09:34:33.953Z,3.80
2017-06-17T09:37:04.151Z,3.78
2017-06-17T09:39:34.287Z,4.00
2017-06-17T09:42:05.049Z,3.70
2017-06-17T09:44:35.256Z,3.80
2017-06-17T09:47:05.779Z,3.50
2017-06-17T09:49:36.031Z,3.80
2017-06-17T09:52:06.363Z,3.60
2017-06-17T09:54:36.840Z,4.03
2017-06-17T09:57:07.033Z,4.05
2017-06-17T09:59:37.266Z,3.35
2017-06-17T10:02:08.109Z,5.18
2017-06-17T10:04:38.308Z,3.80
2017-06-17T10:07:08.513Z,4.10
2017-06-17T10:09:38.743Z,3.80
2017-06-17T10:12:08.922Z,4.25
2017-06-17T10:14:39.517Z,3.20
2017-06-17T10:17:09.989Z,3.80
2017-06-17T10:19:40.161Z,3.20
2017-06-17T10:22:14.197Z,3.30
2017-06-17T10:24:46.635Z,3.00
2017-06-17T10:27:17.921Z,2.90
2017-06-17T10:29:48.355Z,2.97
2017-06-17T10:32:25.314Z,2.97
2017-06-17T10:34:56.075Z,3.37
2017-06-17T10:37:28.419Z,2.72
2017-06-17T10:39:59.142Z,2.90
2017-06-17T10:42:30.880Z,2.47
2017-06-17T10:45:03.409Z,3.20
2017-06-17T10:47:34.293Z,3.22
2017-06-17T10:50:04.883Z,3.08
2017-06-17T10:52:35.444Z,3.60
2017-06-17T10:55:05.602Z,3.20
2017-06-17T10:57:36.330Z,2.80
2017-06-17T11:00:06.860Z,2.70
2017-06-17T11:02:37.463Z,2.80
2017-06-17T11:05:07.694Z,3.60
2017-06-17T11:07:38.188Z,3.28
2017-06-17T11:10:08.312Z,2.80
2017-06-17T11:12:38.469Z,3.10
2017-06-17T11:15:09.122Z,2.50
2017-06-17T11:17:39.383Z,3.20
2017-06-17T11:20:09.515Z,3.22
2017-06-17T11:22:40.117Z,3.30
2017-06-17T11:25:10.268Z,2.93
2017-06-17T11:27:40.409Z,2.97
2017-06-17T11:30:10.959Z,3.15
2017-06-17T11:32:41.389Z,4.40
2017-06-17T11:35:11.545Z,3.28
2017-06-17T11:37:41.778Z,2.90
2017-06-17T11:40:11.957Z,2.92
2017-06-17T11:42:42.167Z,3.20
2017-06-17T11:45:12.664Z,2.77
2017-06-17T11:47:42.908Z,2.97
2017-06-17T11:50:13.102Z,2.83
2017-06-17T11:52:43.577Z,2.90
2017-06-17T11:55:13.739Z,2.75
2017-06-17T11:57:43.934Z,3.10
2017-06-17T12:00:14.615Z,3.08
2017-06-17T12:02:45.233Z,2.40
2017-06-17T12:05:15.650Z,2.75
2017-06-17T12:07:45.809Z,2.78
2017-06-17T12:10:15.965Z,3.10
2017-06-17T12:12:46.185Z,3.10
2017-06-17T12:15:16.633Z,2.70
2017-06-17T12:17:46.828Z,2.50
2017-06-17T12:20:17.164Z,2.40
2017-06-17T12:22:47.472Z,3.30
2017-06-17T12:25:17.741Z,2.80
2017-06-17T12:27:48.238Z,2.60
2017-06-17T12:31:21.347Z,2.62
2017-06-17T12:33:51.788Z,3.10
2017-06-17T12:36:21.998Z,3.10
2017-06-17T12:38:52.168Z,2.90
2017-06-17T12:41:22.453Z,2.78
2017-06-17T12:43:52.940Z,2.42
2017-06-17T12:46:23.334Z,2.90
2017-06-17T12:48:53.525Z,2.72
2017-06-17T12:51:24.009Z,2.60
2017-06-17T12:53:54.171Z,3.20
2017-06-17T12:56:24.448Z,2.53
2017-06-17T12:58:59.037Z,2.60
2017-06-17T13:01:29.439Z,2.23
2017-06-17T13:04:00.177Z,2.90
2017-06-17T13:06:32.747Z,2.67
2017-06-17T13:09:03.056Z,2.70
2017-06-17T13:11:33.670Z,2.70
2017-06-17T13:14:03.919Z,2.80
2017-06-17T13:16:34.136Z,2.70
2017-06-17T13:19:04.534Z,2.55
2017-06-17T13:21:34.793Z,3.00
2017-06-17T13:24:04.924Z,2.60
2017-06-17T13:26:35.437Z,2.75
2017-06-17T13:29:05.766Z,2.90
2017-06-17T13:31:35.920Z,2.97
2017-06-17T13:43:18.516Z,2.90
2017-06-17T13:45:48.643Z,2.55
2017-06-17T13:48:18.838Z,2.72
2017-06-17T13:50:49.317Z,2.62
2017-06-17T13:53:19.348Z,2.60
2017-06-17T13:55:49.455Z,3.00
2017-06-17T13:58:19.538Z,2.30
2017-06-17T14:00:50.131Z,3.00
2017-06-17T14:03:20.321Z,2.50
2017-06-17T14:05:50.371Z,2.58
2017-06-17T14:08:20.461Z,2.40
2017-06-17T14:10:50.508Z,2.72
2017-06-17T14:13:20.729Z,2.97
2017-06-17T14:15:51.155Z,2.58
2017-06-17T14:18:21.405Z,2.75
2017-06-17T14:20:55.981Z,2.62
2017-06-17T14:23:26.226Z,2.83
2017-06-17T14:25:56.383Z,2.67
2017-06-17T14:28:26.489Z,2.40
2017-06-17T14:30:56.537Z,2.70
2017-06-17T14:33:26.683Z,2.90
2017-06-17T14:35:56.949Z,2.35
2017-06-17T14:38:27.077Z,2.50
2017-06-17T14:40:57.473Z,2.30
2017-06-17T14:43:28.008Z,2.08
2017-06-17T14:45:58.465Z,2.60
2017-06-17T14:48:28.534Z,2.60
2017-06-17T14:50:58.632Z,2.70
2017-06-17T14:53:28.794Z,2.62
2017-06-17T14:55:58.867Z,2.50
2017-06-17T14:58:30.033Z,2.58
2017-06-17T15:01:00.435Z,2.80
2017-06-17T15:03:31.967Z,2.55
2017-06-17T15:06:02.024Z,3.00
2017-06-17T15:08:32.659Z,2.80
2017-06-17T15:11:02.821Z,2.20
2017-06-17T15:13:33.721Z,2.78
2017-06-17T15:16:05.543Z,2.67
2017-06-17T15:18:35.653Z,2.90
2017-06-17T15:21:06.010Z,3.08
2017-06-17T15:23:36.077Z,2.83
2017-06-17T15:26:06.430Z,2.50
2017-06-17T15:28:36.489Z,2.78
2017-06-17T15:31:06.574Z,3.08
2017-06-17T15:33:36.709Z,2.70
2017-06-17T15:36:06.737Z,2.90
2017-06-17T15:38:37.598Z,2.73
2017-06-17T15:41:07.753Z,2.83
2017-06-17T15:43:38.368Z,3.00
2017-06-17T15:46:09.194Z,3.00
2017-06-17T15:48:39.873Z,3.00
2017-06-17T15:51:10.656Z,3.00
2017-06-17T15:53:40.926Z,3.30
2017-06-17T15:56:11.023Z,3.40
2017-06-17T15:58:41.122Z,3.05
2017-06-17T16:01:11.757Z,3.37
2017-06-17T16:03:42.816Z,2.80
2017-06-17T16:06:13.182Z,3.40
2017-06-17T16:08:43.322Z,2.92
2017-06-17T16:11:13.405Z,2.80
2017-06-17T16:13:43.683Z,2.90
2017-06-17T16:16:13.842Z,3.33
2017-06-17T16:18:44.039Z,2.53
2017-06-17T16:21:14.558Z,2.85
2017-06-17T16:23:44.621Z,2.97
2017-06-17T16:26:14.689Z,3.40
2017-06-17T16:28:45.010Z,3.00
2017-06-17T16:31:15.196Z,2.78
2017-06-17T16:33:46.045Z,3.03
2017-06-17T16:36:16.511Z,2.90
2017-06-17T16:38:46.585Z,2.80
2017-06-17T16:41:16.794Z,2.67
2017-06-17T16:43:47.659Z,2.95
2017-06-17T16:46:18.333Z,2.75
2017-06-17T16:48:48.473Z,2.95
2017-06-17T16:51:19.641Z,2.65
2017-06-17T16:53:49.712Z,2.80
2017-06-17T16:56:19.813Z,2.95
2017-06-17T16:58:50.853Z,2.97
2017-06-17T17:01:22.389Z,2.80
2017-06-17T17:03:52.616Z,2.70
2017-06-17T17:06:23.314Z,3.00
2017-06-17T17:08:55.907Z,2.80
2017-06-17T17:11:26.008Z,2.43
2017-06-17T17:13:56.376Z,2.50
2017-06-17T17:16:26.647Z,2.50
2017-06-17T17:18:56.768Z,2.50
2017-06-17T17:21:27.092Z,2.65
2017-06-17T17:23:57.123Z,2.25
2017-06-17T17:26:27.277Z,2.00
2017-06-17T17:28:57.617Z,2.20
2017-06-17T17:31:27.764Z,2.60
2017-06-17T17:33:58.353Z,2.45
2017-06-17T17:36:28.665Z,2.30
2017-06-17T17:38:59.741Z,2.20
2017-06-17T17:41:30.662Z,2.10
2017-06-17T17:44:00.898Z,2.10
2017-06-17T17:46:31.533Z,1.80
2017-06-17T17:49:02.172Z,1.95
2017-06-17T17:51:32.359Z,2.17
2017-06-17T17:54:03.074Z,2.35
2017-06-17T17:56:33.433Z,2.50
2017-06-17T17:59:03.654Z,2.00
2017-06-17T18:01:33.910Z,1.98
2017-06-17T18:04:04.422Z,2.03
2017-06-17T18:06:34.609Z,1.90
2017-06-17T18:09:04.866Z,1.80
2017-06-17T18:11:35.242Z,2.10
2017-06-17T18:14:05.473Z,2.30
2017-06-17T18:16:35.697Z,2.17
2017-06-17T18:19:06.469Z,1.90
2017-06-17T18:21:36.854Z,1.70
2017-06-17T18:24:07.318Z,1.85
2017-06-17T18:26:38.255Z,1.90
2017-06-17T18:29:08.609Z,1.70
2017-06-17T18:31:39.269Z,1.70
2017-06-17T18:34:10.056Z,1.60
2017-06-17T18:36:41.010Z,1.70
2017-06-17T18:39:11.484Z,1.70
2017-06-17T18:41:41.924Z,1.60
2017-06-17T18:44:12.279Z,1.58
2017-06-17T18:46:42.409Z,1.77
2017-06-17T18:49:13.005Z,1.87
2017-06-17T18:51:43.057Z,1.70
2017-06-17T18:54:13.146Z,1.80
2017-06-17T18:56:43.473Z,2.17
2017-06-17T18:59:14.009Z,2.20
2017-06-17T19:01:44.715Z,1.93
2017-06-17T19:04:15.565Z,1.80
2017-06-17T19:06:45.652Z,1.92
2017-06-17T19:09:15.736Z,1.40
2017-06-17T19:11:46.679Z,1.60
2017-06-17T19:14:16.794Z,2.20
2017-06-17T19:16:46.849Z,1.90
2017-06-17T19:19:17.210Z,1.92
2017-06-17T19:21:47.267Z,2.20
2017-06-17T19:24:17.289Z,1.90
2017-06-17T19:26:47.965Z,1.80
2017-06-17T19:29:18.018Z,2.00
2017-06-17T19:31:48.059Z,1.95
2017-06-17T19:34:18.436Z,2.00
2017-06-17T19:36:48.590Z,2.15
2017-06-17T19:39:18.697Z,2.20
2017-06-17T19:41:49.139Z,2.00
2017-06-17T19:44:19.406Z,2.60
2017-06-17T19:46:49.485Z,2.40
2017-06-17T19:49:19.803Z,2.20
2017-06-17T19:51:49.873Z,2.30
2017-06-17T19:54:19.852Z,2.03
2017-06-17T19:56:49.861Z,2.00
2017-06-17T19:59:20.062Z,2.42
2017-06-17T20:01:50.671Z,2.95
2017-06-17T20:04:20.706Z,1.90
2017-06-17T20:06:50.750Z,2.30
2017-06-17T20:09:20.951Z,2.20
2017-06-17T20:11:51.349Z,2.20
2017-06-17T20:14:21.382Z,2.10
2017-06-17T20:16:51.439Z,2.45
2017-06-17T20:19:21.478Z,2.10
2017-06-17T20:21:55.614Z,2.20
2017-06-17T20:24:29.905Z,2.47
2017-06-17T20:27:00.302Z,2.10
2017-06-17T20:29:30.689Z,2.17
2017-06-17T20:32:00.735Z,2.00
2017-06-17T20:34:30.868Z,3.83
2017-06-17T20:37:00.905Z,2.37
2017-06-17T20:39:30.957Z,2.30
2017-06-17T20:42:01.008Z,2.50
2017-06-17T20:44:31.613Z,2.47
2017-06-17T20:47:01.689Z,1.90
2017-06-17T20:49:31.773Z,2.50
2017-06-17T20:52:01.797Z,2.30
2017-06-17T20:54:31.848Z,1.92
2017-06-17T20:57:01.913Z,2.28
2017-06-17T20:59:32.251Z,2.25
2017-06-17T21:02:02.471Z,2.28
2017-06-17T21:04:32.633Z,1.90
2017-06-17T21:07:02.725Z,2.30
2017-06-17T21:09:32.786Z,2.40
2017-06-17T21:12:03.055Z,2.12
2017-06-17T21:14:33.101Z,2.30
2017-06-17T21:17:03.389Z,2.37
2017-06-17T21:19:33.726Z,2.55
2017-06-17T21:22:03.753Z,1.90
2017-06-17T21:24:34.053Z,2.00
2017-06-17T21:27:04.118Z,2.50
2017-06-17T21:29:34.145Z,2.30
2017-06-17T21:32:04.356Z,2.40
2017-06-17T21:34:34.452Z,2.40
2017-06-17T21:37:04.508Z,2.50
2017-06-17T21:39:34.913Z,3.17
2017-06-17T21:42:04.920Z,2.45
2017-06-17T21:44:35.385Z,2.33
2017-06-17T21:47:05.425Z,2.50
2017-06-17T21:49:35.478Z,1.90
2017-06-17T21:52:05.973Z,2.10
2017-06-17T21:54:36.318Z,2.15
2017-06-17T21:57:06.413Z,2.30
2017-06-17T21:59:36.529Z,2.40
2017-06-17T22:02:07.357Z,2.40
2017-06-17T22:04:37.803Z,3.10
2017-06-17T22:07:08.314Z,2.40
2017-06-17T22:09:38.386Z,2.60
2017-06-17T22:12:08.489Z,2.70
2017-06-17T22:14:38.528Z,3.33
2017-06-17T22:17:08.593Z,3.30
2017-06-17T22:19:38.897Z,2.90
2017-06-17T22:22:08.885Z,2.77
2017-06-17T22:24:38.951Z,2.90
2017-06-17T22:27:08.972Z,2.85
2017-06-17T22:29:39.453Z,2.25
2017-06-17T22:32:09.769Z,2.45
2017-06-17T22:34:39.855Z,2.60
2017-06-17T22:37:10.025Z,2.70
2017-06-17T22:39:40.077Z,2.90
2017-06-17T22:42:10.088Z,2.90
2017-06-17T22:44:40.934Z,2.83
2017-06-17T22:47:11.058Z,2.80
2017-06-17T22:49:41.093Z,3.00
2017-06-17T22:52:11.157Z,3.40
2017-06-17T22:54:41.204Z,3.28
2017-06-17T22:57:11.250Z,3.10
2017-06-17T22:59:41.335Z,2.75
2017-06-17T23:02:12.105Z,2.72
2017-06-17T23:04:42.458Z,2.30
2017-06-17T23:07:12.785Z,2.40
2017-06-17T23:09:42.826Z,2.50
2017-06-17T23:12:12.821Z,2.70
2017-06-17T23:14:42.893Z,2.55
2017-06-17T23:17:13.598Z,2.60
2017-06-17T23:19:43.894Z,2.40
2017-06-17T23:22:13.898Z,2.60
2017-06-17T23:24:45.217Z,2.72
2017-06-17T23:27:15.354Z,2.17
2017-06-17T23:29:46.162Z,2.23
2017-06-17T23:32:16.547Z,2.50
2017-06-17T23:34:46.981Z,2.50
2017-06-17T23:37:17.579Z,2.28
2017-06-17T23:39:47.978Z,2.30
2017-06-17T23:42:18.445Z,2.30
2017-06-17T23:44:49.479Z,2.25
2017-06-17T23:47:19.482Z,2.30
2017-06-17T23:49:49.559Z,2.62
2017-06-17T23:52:19.873Z,2.55
2017-06-17T23:54:49.917Z,2.50
2017-06-17T23:57:20.228Z,2.87
2017-06-17T23:59:50.583Z,2.83
